Time;durP1;ratioP1;P1;durP2;ratioP2;P2;SDS_P1;SDS_P2;PMS_P1;PMS_P2;Temp;Humidity;BMP_temperature;BMP_pressure;BME280_temperature;BME280_humidity;BME280_pressure;Samples;Min_cycle;Max_cycle;Signal;HPM_P1;HPM_P2
2022/08/16 00:00:49;;;;;;;12.10;10.67;;;;;;;22.18;100.00;100709.88;2062524;28;20659;-67
2022/08/16 00:01:50;;;;;;;11.67;10.43;;;;;;;22.31;100.00;100727.84;2065110;28;20190;-66
2022/08/16 00:02:52;;;;;;;13.10;10.80;;;;;;;22.31;100.00;100727.84;2066037;28;20181;-67
2022/08/16 00:03:53;;;;;;;11.93;10.63;;;;;;;22.32;100.00;100728.63;2073997;28;20256;-67
2022/08/16 00:04:54;;;;;;;13.47;10.73;;;;;;;21.98;100.00;100677.00;2065435;28;20571;-67
2022/08/16 00:05:54;;;;;;;12.07;10.87;;;;;;;22.32;100.00;100726.56;2071978;28;20455;-67
2022/08/16 00:06:55;;;;;;;11.97;10.80;;;;;;;21.92;100.00;100664.94;2059474;28;20211;-67
2022/08/16 00:07:57;;;;;;;11.30;9.80;;;;;;;22.34;100.00;100720.41;2057153;28;20186;-67
2022/08/16 00:08:58;;;;;;;12.10;10.97;;;;;;;22.35;100.00;100721.97;2069119;28;20189;-67
2022/08/16 00:09:59;;;;;;;12.40;11.07;;;;;;;22.37;100.00;100725.81;2064738;28;20703;-67
2022/08/16 00:10:59;;;;;;;13.03;11.03;;;;;;;22.01;100.00;100667.50;2063779;28;20178;-67
2022/08/16 00:12:00;;;;;;;13.23;10.27;;;;;;;22.38;100.00;100732.25;2065923;28;20181;-67
2022/08/16 00:13:05;;;;;;;13.30;10.93;;;;;;;22.36;100.00;100715.06;2073972;28;20570;-67
2022/08/16 00:14:09;;;;;;;11.70;10.60;;;;;;;22.38;100.00;100718.13;2073710;28;20575;-67
2022/08/16 00:15:22;;;;;;;14.30;10.43;;;;;;;22.38;100.00;100721.72;2071320;28;20210;-67
2022/08/16 00:16:28;;;;;;;13.17;10.83;;;;;;;22.40;100.00;100718.38;2073253;28;20668;-67
2022/08/16 00:17:29;;;;;;;13.27;10.47;;;;;;;22.41;100.00;100722.75;2066397;28;20202;-67
2022/08/16 00:18:29;;;;;;;11.63;10.53;;;;;;;22.43;100.00;100720.19;2065688;28;20225;-67
2022/08/16 00:19:33;;;;;;;13.13;9.90;;;;;;;22.42;100.00;100722.22;2065210;28;20249;-67
2022/08/16 00:20:33;;;;;;;12.87;10.30;;;;;;;21.91;100.00;100637.97;2065664;28;20194;-67
2022/08/16 00:21:34;;;;;;;10.93;9.83;;;;;;;22.42;100.00;100713.75;2065579;28;20186;-66
2022/08/16 00:22:37;;;;;;;13.07;10.43;;;;;;;22.27;100.00;100678.59;2065493;28;20179;-67
2022/08/16 00:23:37;;;;;;;11.20;10.10;;;;;;;22.46;100.00;100710.72;2067081;28;20237;-67
2022/08/16 00:24:38;;;;;;;11.53;10.33;;;;;;;22.47;100.00;100710.19;2073727;28;20424;-67
2022/08/16 00:25:39;;;;;;;11.97;10.63;;;;;;;22.47;100.00;100706.63;2073180;28;20174;-67
2022/08/16 00:26:41;;;;;;;10.83;9.83;;;;;;;22.48;100.00;100702.50;2073401;28;20190;-67
2022/08/16 00:27:42;;;;;;;12.43;10.00;;;;;;;22.48;100.00;100710.97;2073506;28;20190;-67
2022/08/16 00:28:42;;;;;;;11.37;10.27;;;;;;;22.11;100.00;100654.69;2073528;28;20177;-67
2022/08/16 00:29:43;;;;;;;12.70;10.80;;;;;;;22.47;100.00;100707.38;2068970;28;20186;-67
2022/08/16 00:30:43;;;;;;;11.27;10.27;;;;;;;22.44;100.00;100705.59;2065420;28;20273;-67
2022/08/16 00:31:48;;;;;;;11.10;9.90;;;;;;;22.47;100.00;100709.44;2067718;28;20175;-67
2022/08/16 00:32:55;;;;;;;11.97;9.90;;;;;;;22.49;100.00;100712.50;2071993;28;20635;-67
2022/08/16 00:33:56;;;;;;;10.83;9.73;;;;;;;22.32;100.00;100691.94;2065664;28;20200;-67
2022/08/16 00:34:56;;;;;;;12.40;9.87;;;;;;;22.46;100.00;100714.31;2065113;28;20171;-67
2022/08/16 00:35:57;;;;;;;10.80;9.70;;;;;;;22.46;100.00;100727.66;2073384;28;20199;-67
2022/08/16 00:36:57;;;;;;;11.77;9.80;;;;;;;22.47;100.00;100740.50;2073509;28;20292;-67
2022/08/16 00:38:01;;;;;;;11.60;10.00;;;;;;;22.45;100.00;100734.56;2061554;28;20235;-67
2022/08/16 00:39:03;;;;;;;12.43;9.50;;;;;;;22.02;100.00;100679.56;2057527;28;20665;-67
2022/08/16 00:40:05;;;;;;;11.00;9.77;;;;;;;22.47;100.00;100749.72;2059122;28;20462;-67
2022/08/16 00:41:06;;;;;;;13.23;9.43;;;;;;;21.80;100.00;100640.78;2061851;28;20454;-67
2022/08/16 00:42:06;;;;;;;9.53;8.53;;;;;;;22.44;100.00;100736.66;2057540;28;20753;-67
2022/08/16 00:43:13;;;;;;;10.47;9.37;;;;;;;22.40;100.00;100733.28;2057280;28;20198;-67
2022/08/16 00:44:16;;;;;;;10.47;9.47;;;;;;;22.38;100.00;100733.03;2057465;28;20163;-67
2022/08/16 00:45:35;;;;;;;11.07;9.57;;;;;;;21.65;100.00;100608.41;2057128;28;20846;-67
2022/08/16 00:46:44;;;;;;;11.40;10.00;;;;;;;22.40;100.00;100730.44;2063202;28;20428;-67
2022/08/16 00:47:46;;;;;;;11.40;10.27;;;;;;;22.28;100.00;100723.25;2057378;28;20413;-67
2022/08/16 00:48:49;;;;;;;10.63;9.50;;;;;;;22.22;100.00;100724.50;2057333;28;20809;-67
2022/08/16 00:49:50;;;;;;;10.77;9.70;;;;;;;22.14;100.00;100714.97;2057285;28;20522;-67
2022/08/16 00:50:50;;;;;;;11.80;9.70;;;;;;;22.17;100.00;100717.59;2057307;28;20418;-67
2022/08/16 00:51:51;;;;;;;12.20;10.23;;;;;;;21.98;100.00;100682.63;2057619;28;20190;-67
2022/08/16 00:52:52;;;;;;;11.37;10.17;;;;;;;22.01;100.00;100695.72;2059597;28;20207;-67
2022/08/16 00:53:53;;;;;;;12.27;9.70;;;;;;;22.18;100.00;100719.13;2057434;28;20438;-67
2022/08/16 00:54:53;;;;;;;10.87;9.77;;;;;;;22.14;100.00;100721.41;2060710;28;20222;-67
2022/08/16 00:55:57;;;;;;;11.10;10.10;;;;;;;22.15;100.00;100713.72;2062079;28;20195;-67
2022/08/16 00:57:01;;;;;;;11.50;10.40;;;;;;;22.16;100.00;100729.38;2059233;28;20243;-67
2022/08/16 00:58:02;;;;;;;11.17;10.17;;;;;;;22.19;100.00;100731.94;2063923;28;20459;-67
2022/08/16 00:59:07;;;;;;;11.17;10.03;;;;;;;22.22;100.00;100722.44;2057279;28;20414;-67
2022/08/16 01:00:08;;;;;;;12.47;10.17;;;;;;;22.23;100.00;100717.56;2057652;28;20178;-67
2022/08/16 01:01:10;;;;;;;12.07;10.07;;;;;;;21.62;100.00;100624.28;2057066;28;20425;-67
2022/08/16 01:02:12;;;;;;;12.07;10.20;;;;;;;21.84;100.00;100660.25;2057527;28;20446;-67
2022/08/16 01:03:16;;;;;;;11.20;10.03;;;;;;;21.76;100.00;100657.19;2063341;28;20436;-67
2022/08/16 01:04:21;;;;;;;11.10;9.70;;;;;;;21.98;100.00;100693.13;2063670;28;20517;-67
2022/08/16 01:05:22;;;;;;;10.33;9.03;;;;;;;22.07;100.00;100698.56;2059868;28;20430;-67
2022/08/16 01:06:22;;;;;;;9.73;8.93;;;;;;;21.66;100.00;100640.97;2060612;28;20441;-67
2022/08/16 01:07:24;;;;;;;10.80;9.70;;;;;;;22.23;100.00;100717.56;2053630;28;20187;-67
2022/08/16 01:08:26;;;;;;;12.77;9.70;;;;;;;22.19;100.00;100731.94;2048880;28;20657;-67
2022/08/16 01:09:28;;;;;;;10.83;9.80;;;;;;;22.21;100.00;100726.56;2057170;28;20477;-67
2022/08/16 01:10:31;;;;;;;11.90;10.17;;;;;;;22.23;100.00;100740.94;2057569;28;20450;-67
2022/08/16 01:11:33;;;;;;;11.20;10.00;;;;;;;21.95;100.00;100699.81;2057080;28;20906;-67
2022/08/16 01:12:33;;;;;;;14.87;10.63;;;;;;;22.13;100.00;100739.63;2057476;28;20446;-67
2022/08/16 01:13:36;;;;;;;10.87;9.70;;;;;;;22.17;100.00;100748.63;2063479;28;20437;-67
2022/08/16 01:14:42;;;;;;;12.90;10.33;;;;;;;22.16;100.00;100749.13;2059729;28;20195;-67
2022/08/16 01:15:46;;;;;;;11.53;9.90;;;;;;;22.16;100.00;100740.66;2061257;28;20429;-67
2022/08/16 01:16:47;;;;;;;11.03;9.40;;;;;;;22.00;100.00;100727.28;2060559;28;20892;-67
2022/08/16 01:17:48;;;;;;;10.77;9.60;;;;;;;22.11;100.00;100745.00;2051940;28;20438;-67
2022/08/16 01:19:11;;;;;;;11.00;9.90;;;;;;;22.16;100.00;100746.31;2054208;28;21015;-67
2022/08/16 01:20:17;;;;;;;10.60;9.50;;;;;;;22.17;100.00;100740.16;2061854;28;20313;-67
2022/08/16 01:21:48;;;;;;;10.40;9.40;;;;;;;22.22;100.00;100730.16;2065134;28;20449;-67
2022/08/16 01:23:09;;;;;;;11.67;9.63;;;;;;;22.27;100.00;100749.91;2065289;28;20520;-67
2022/08/16 01:24:34;;;;;;;10.63;9.63;;;;;;;22.32;100.00;100739.94;2057474;28;20905;-67
2022/08/16 01:25:40;;;;;;;10.77;9.67;;;;;;;22.39;100.00;100742.25;2056420;28;20855;-67
2022/08/16 01:26:43;;;;;;;11.37;9.93;;;;;;;22.35;100.00;100736.84;2057150;28;20840;-67
2022/08/16 01:27:52;;;;;;;9.47;8.57;;;;;;;22.34;100.00;100732.50;2056938;28;20884;-68
2022/08/16 01:28:54;;;;;;;10.53;9.20;;;;;;;22.40;100.00;100738.13;2063224;28;20470;-67
2022/08/16 01:30:04;;;;;;;9.63;8.77;;;;;;;22.48;100.00;100734.34;2057523;28;20448;-67
2022/08/16 01:31:07;;;;;;;10.50;9.40;;;;;;;22.48;100.00;100728.69;2057365;28;20959;-67
2022/08/16 01:32:07;;;;;;;11.23;9.77;;;;;;;22.05;100.00;100655.97;2057135;28;20432;-67
2022/08/16 01:33:08;;;;;;;10.70;9.40;;;;;;;22.58;100.00;100732.81;2057123;28;20433;-67
2022/08/16 01:34:12;;;;;;;11.53;9.60;;;;;;;22.56;100.00;100731.78;2063083;28;20209;-67
2022/08/16 01:35:35;;;;;;;11.57;9.27;;;;;;;22.15;100.00;100677.03;2064611;28;20430;-67
2022/08/16 01:36:36;;;;;;;11.97;9.40;;;;;;;22.62;100.00;100730.50;2057086;28;20482;-67
2022/08/16 01:37:41;;;;;;;11.50;9.23;;;;;;;22.67;100.00;100737.44;2065672;28;20508;-67
2022/08/16 01:38:45;;;;;;;10.87;9.27;;;;;;;22.70;100.00;100742.06;2067679;28;20664;-67
2022/08/16 01:39:46;;;;;;;10.43;9.43;;;;;;;22.70;100.00;100747.69;2070122;28;20990;-67
2022/08/16 01:40:48;;;;;;;11.17;9.33;;;;;;;22.69;100.00;100746.94;2069224;28;20887;-67
2022/08/16 01:41:49;;;;;;;10.77;9.07;;;;;;;22.19;100.00;100686.78;2065081;28;20197;-66
2022/08/16 01:42:50;;;;;;;10.30;9.20;;;;;;;22.63;100.00;100734.09;2064577;28;20960;-67
2022/08/16 01:43:52;;;;;;;9.53;8.60;;;;;;;22.65;100.00;100740.78;2065207;28;20538;-67
2022/08/16 01:44:52;;;;;;;12.10;8.67;;;;;;;22.66;100.00;100736.66;2064853;28;20424;-67
2022/08/16 01:45:55;;;;;;;9.07;8.27;;;;;;;22.68;100.00;100739.72;2064065;28;20420;-67
2022/08/16 01:46:56;;;;;;;10.97;9.20;;;;;;;22.05;100.00;100636.97;2064879;28;20175;-67
2022/08/16 01:47:56;;;;;;;9.47;8.43;;;;;;;22.71;100.00;100750.03;2065044;28;20515;-67
2022/08/16 01:49:01;;;;;;;10.53;9.03;;;;;;;22.60;100.00;100726.63;2064903;28;20186;-67
2022/08/16 01:50:04;;;;;;;10.63;9.17;;;;;;;22.39;100.00;100685.78;2069640;28;20197;-67
2022/08/16 01:51:05;;;;;;;13.60;9.30;;;;;;;22.83;100.00;100753.63;2069173;28;20441;-67
2022/08/16 01:52:13;;;;;;;17.07;9.73;;;;;;;22.80;100.00;100766.72;2067223;28;20430;-67
2022/08/16 01:53:14;;;;;;;10.03;8.80;;;;;;;22.82;100.00;100761.31;2070145;28;20813;-67
2022/08/16 01:54:14;;;;;;;16.63;10.07;;;;;;;22.49;100.00;100720.97;2069953;28;20531;-67
2022/08/16 01:55:20;;;;;;;13.77;8.50;;;;;;;22.77;100.00;100764.16;2072419;28;20180;-67
2022/08/16 01:56:22;;;;;;;18.37;9.13;;;;;;;22.25;100.00;100676.28;2072752;28;20181;-67
2022/08/16 01:57:23;;;;;;;24.10;10.97;;;;;;;22.41;100.00;100712.22;2064999;28;20488;-67
2022/08/16 01:58:24;;;;;;;10.97;8.33;;;;;;;22.81;100.00;100759.00;2064864;28;20437;-67
2022/08/16 01:59:26;;;;;;;17.90;9.40;;;;;;;22.80;100.00;100757.47;2071059;28;20580;-67
2022/08/16 02:00:27;;;;;;;47.00;12.10;;;;;;;22.83;100.00;100759.28;2059020;28;20446;-67
2022/08/16 02:01:29;;;;;;;43.07;12.20;;;;;;;22.83;100.00;100765.69;2056207;28;20470;-67
2022/08/16 02:02:29;;;;;;;32.57;11.03;;;;;;;22.83;100.00;100767.75;2059471;28;20195;-67
2022/08/16 02:03:30;;;;;;;13.03;7.57;;;;;;;22.80;100.00;100757.47;2063741;28;20418;-67
2022/08/16 02:04:32;;;;;;;10.03;7.90;;;;;;;22.85;100.00;100757.47;2069493;28;20563;-67
2022/08/16 02:05:33;;;;;;;8.90;8.00;;;;;;;22.79;100.00;100736.16;2055536;28;20175;-67
2022/08/16 02:06:34;;;;;;;12.63;8.67;;;;;;;22.95;100.00;100753.13;2064130;28;20437;-67
2022/08/16 02:07:34;;;;;;;12.87;8.60;;;;;;;22.90;100.00;100747.44;2072857;28;20189;-67
2022/08/16 02:08:35;;;;;;;12.63;8.10;;;;;;;22.72;100.00;100717.66;2066963;28;20468;-66
2022/08/16 02:09:37;;;;;;;11.93;8.40;;;;;;;22.82;100.00;100732.31;2069834;28;20615;-67
2022/08/16 02:10:38;;;;;;;28.53;10.70;;;;;;;22.90;100.00;100747.44;2068860;28;20668;-67
2022/08/16 02:11:41;;;;;;;13.93;8.07;;;;;;;22.92;100.00;100744.91;2064875;28;20972;-67
2022/08/16 02:12:43;;;;;;;18.37;8.47;;;;;;;22.91;100.00;100754.63;2064823;28;20679;-67
2022/08/16 02:13:44;;;;;;;12.13;8.67;;;;;;;22.54;100.00;100692.75;2065730;28;20794;-67
2022/08/16 02:14:45;;;;;;;10.90;7.70;;;;;;;22.95;100.00;100743.84;2072911;28;20411;-66
2022/08/16 02:15:45;;;;;;;9.63;7.53;;;;;;;22.91;100.00;100741.28;2072081;28;20592;-66
2022/08/16 02:16:46;;;;;;;10.57;7.73;;;;;;;22.89;100.00;100732.56;2065455;28;20202;-67
2022/08/16 02:17:46;;;;;;;11.23;7.97;;;;;;;23.01;100.00;100738.97;2064643;28;20527;-67
2022/08/16 02:18:47;;;;;;;8.07;7.27;;;;;;;23.07;100.00;100742.56;2064869;28;20224;-67
2022/08/16 02:19:50;;;;;;;7.87;6.50;;;;;;;23.06;100.00;100736.16;2068778;28;20190;-67
2022/08/16 02:20:52;;;;;;;10.77;6.37;;;;;;;22.93;100.00;100721.00;2069598;28;20182;-67
2022/08/16 02:21:54;;;;;;;9.90;6.70;;;;;;;23.15;100.00;100729.44;2069250;28;20947;-67
2022/08/16 02:22:58;;;;;;;8.57;7.53;;;;;;;23.23;100.00;100741.81;2077978;28;20925;-67
2022/08/16 02:23:58;;;;;;;11.00;7.30;;;;;;;23.23;100.00;100742.56;2065023;28;20558;-66
2022/08/16 02:25:00;;;;;;;8.97;6.90;;;;;;;23.31;100.00;100743.59;2072528;28;20440;-66
2022/08/16 02:26:02;;;;;;;8.07;7.23;;;;;;;23.32;100.00;100744.34;2064418;28;20190;-67
2022/08/16 02:27:03;;;;;;;7.77;6.00;;;;;;;23.25;100.00;100727.91;2064777;28;20530;-67
2022/08/16 02:28:04;;;;;;;7.37;6.67;;;;;;;23.28;100.00;100735.38;2066480;28;20566;-67
2022/08/16 02:29:05;;;;;;;8.80;7.30;;;;;;;23.23;100.00;100739.00;2072831;28;20177;-67
2022/08/16 02:30:07;;;;;;;10.10;7.40;;;;;;;23.18;100.00;100740.50;2069195;28;20451;-67
2022/08/16 02:31:11;;;;;;;9.23;7.67;;;;;;;23.21;100.00;100747.97;2064910;28;20241;-67
2022/08/16 02:32:14;;;;;;;9.70;7.53;;;;;;;23.06;100.00;100732.53;2066902;28;20174;-67
2022/08/16 02:33:15;;;;;;;11.83;7.20;;;;;;;23.26;100.00;100746.41;2072822;28;20619;-67
2022/08/16 02:34:17;;;;;;;8.20;6.87;;;;;;;23.24;100.00;100749.75;2072298;28;20181;-67
2022/08/16 02:35:19;;;;;;;12.23;7.73;;;;;;;22.85;100.00;100703.78;2072428;28;20721;-67
2022/08/16 02:36:19;;;;;;;9.37;7.40;;;;;;;23.16;100.00;100745.13;2069628;28;20440;-67
2022/08/16 02:37:19;;;;;;;10.33;7.23;;;;;;;22.72;100.00;100675.28;2071706;28;20942;-67
2022/08/16 02:38:20;;;;;;;10.17;7.43;;;;;;;22.78;100.00;100697.88;2059386;28;20711;-67
2022/08/16 02:39:21;;;;;;;10.20;7.80;;;;;;;23.25;100.00;100759.81;2060997;28;20265;-67
2022/08/16 02:40:23;;;;;;;12.50;7.60;;;;;;;23.24;100.00;100763.91;2061316;28;20191;-66
2022/08/16 02:41:24;;;;;;;7.07;6.33;;;;;;;23.00;100.00;100715.59;2058755;28;20181;-67
2022/08/16 02:42:24;;;;;;;8.40;6.70;;;;;;;23.23;100.00;100756.69;2056011;28;20419;-67
2022/08/16 02:43:28;;;;;;;9.47;7.33;;;;;;;23.18;100.00;100751.06;2055801;28;20171;-67
2022/08/16 02:44:29;;;;;;;9.90;7.03;;;;;;;23.20;100.00;100756.97;2064623;28;20181;-67
2022/08/16 02:45:31;;;;;;;7.37;6.47;;;;;;;23.18;100.00;100756.72;2056356;28;20450;-67
2022/08/16 02:46:32;;;;;;;7.87;7.03;;;;;;;23.16;100.00;100757.22;2056235;28;20433;-67
2022/08/16 02:47:32;;;;;;;7.30;6.60;;;;;;;23.13;100.00;100749.00;2062045;28;20445;-67
2022/08/16 02:48:34;;;;;;;9.53;6.70;;;;;;;22.87;100.00;100691.97;2060074;28;20430;-67
2022/08/16 02:49:35;;;;;;;7.43;6.73;;;;;;;23.24;100.00;100757.47;2059720;28;20574;-67
2022/08/16 02:50:35;;;;;;;8.07;7.20;;;;;;;22.95;100.00;100707.13;2064668;28;20421;-67
2022/08/16 02:51:38;;;;;;;10.40;6.70;;;;;;;23.21;100.00;100758.50;2064542;28;20178;-67
2022/08/16 02:52:38;;;;;;;6.93;6.33;;;;;;;;;;2064599;28;20179;-67
2022/08/16 02:53:41;;;;;;;7.10;6.40;;;;;;;;;;2064810;28;20530;-67
2022/08/16 02:54:41;;;;;;;7.53;6.77;;;;;;;23.25;100.00;100759.03;2056590;28;20578;-67
2022/08/16 02:55:42;;;;;;;9.07;6.60;;;;;;;23.21;100.00;100762.13;2062252;28;20451;-67
2022/08/16 02:56:43;;;;;;;7.77;6.33;;;;;;;23.29;100.00;100763.13;2058761;28;20206;-67
2022/08/16 02:57:44;;;;;;;11.80;7.20;;;;;;;22.73;100.00;100679.63;2060318;28;20186;-67
2022/08/16 02:58:48;;;;;;;8.90;6.60;;;;;;;22.84;100.00;100685.31;2061032;28;21063;-67
2022/08/16 02:59:49;;;;;;;6.77;6.03;;;;;;;23.00;100.00;100703.50;2056576;28;20749;-67
2022/08/16 03:00:50;;;;;;;9.23;6.87;;;;;;;23.28;100.00;100763.66;2056597;28;20509;-67
2022/08/16 03:01:50;;;;;;;7.87;6.93;;;;;;;22.96;100.00;100709.44;2047798;28;20427;-67
2022/08/16 03:02:54;;;;;;;7.43;6.70;;;;;;;23.13;100.00;100727.13;2048150;29;20415;-67
2022/08/16 03:03:55;;;;;;;7.77;6.37;;;;;;;23.35;100.00;100752.59;2057411;28;20198;-67
2022/08/16 03:04:55;;;;;;;8.60;6.50;;;;;;;23.37;100.00;100752.84;2056533;28;20452;-67
2022/08/16 03:05:56;;;;;;;9.30;6.60;;;;;;;23.15;100.00;100723.78;2056169;28;20180;-67
2022/08/16 03:06:56;;;;;;;11.07;6.80;;;;;;;23.32;100.00;100738.69;2061246;28;20194;-67
2022/08/16 03:07:57;;;;;;;10.63;7.00;;;;;;;23.30;100.00;100727.13;2064494;28;20178;-67
2022/08/16 03:08:58;;;;;;;9.83;7.07;;;;;;;23.38;100.00;100745.88;2064397;28;20253;-67
2022/08/16 03:09:59;;;;;;;7.30;6.13;;;;;;;23.47;100.00;100751.25;2062951;28;20232;-67
2022/08/16 03:11:00;;;;;;;6.77;6.17;;;;;;;23.42;100.00;100728.63;2056280;28;20473;-67
2022/08/16 03:12:01;;;;;;;10.87;7.10;;;;;;;23.08;100.00;100679.84;2056848;28;20171;-67
2022/08/16 03:13:03;;;;;;;7.13;6.43;;;;;;;23.38;100.00;100739.47;2064075;28;20240;-67
2022/08/16 03:14:04;;;;;;;8.37;6.20;;;;;;;23.14;100.00;100705.28;2057955;28;20823;-67
2022/08/16 03:15:11;;;;;;;7.63;6.30;;;;;;;23.39;100.00;100736.09;2055480;28;20520;-67
2022/08/16 03:16:11;;;;;;;10.63;6.40;;;;;;;23.42;100.00;100743.56;2061084;28;20190;-67
2022/08/16 03:17:12;;;;;;;7.73;6.17;;;;;;;23.34;100.00;100734.06;2064359;28;20712;-67
2022/08/16 03:18:13;;;;;;;8.30;6.83;;;;;;;23.41;100.00;100750.50;2064430;28;20196;-67
2022/08/16 03:19:14;;;;;;;13.90;7.60;;;;;;;23.43;100.00;100750.00;2064393;28;20178;-67
2022/08/16 03:20:16;;;;;;;14.13;7.20;;;;;;;23.06;100.00;100685.25;2063504;28;20174;-67
2022/08/16 03:21:17;;;;;;;9.80;6.47;;;;;;;23.43;100.00;100745.09;2056284;28;20429;-67
2022/08/16 03:22:18;;;;;;;9.83;6.67;;;;;;;22.76;100.00;100660.88;2064747;28;20418;-67
2022/08/16 03:23:19;;;;;;;12.40;7.00;;;;;;;23.34;100.00;100745.38;2056899;28;20434;-67
2022/08/16 03:24:19;;;;;;;16.07;7.20;;;;;;;23.38;100.00;100745.88;2062784;28;20225;-67
2022/08/16 03:25:20;;;;;;;9.20;6.03;;;;;;;22.69;100.00;100652.94;2058259;28;20245;-67
2022/08/16 03:26:20;;;;;;;6.60;5.73;;;;;;;23.34;100.00;100742.53;2059914;28;20190;-67
2022/08/16 03:27:21;;;;;;;9.27;7.00;;;;;;;23.36;100.00;100739.97;2055701;28;20183;-67
2022/08/16 03:28:21;;;;;;;10.03;6.83;;;;;;;23.37;100.00;100747.19;2045869;28;20187;-67
2022/08/16 03:29:22;;;;;;;12.30;7.90;;;;;;;22.93;100.00;100675.78;2040384;29;20189;-67
2022/08/16 03:30:27;;;;;;;13.27;7.00;;;;;;;22.99;100.00;100699.16;2056234;28;20175;-67
2022/08/16 03:31:27;;;;;;;10.30;7.23;;;;;;;23.29;100.00;100748.22;2056646;28;20171;-67
2022/08/16 03:32:28;;;;;;;6.53;5.77;;;;;;;23.14;100.00;100717.34;2063604;28;21074;-67
2022/08/16 03:33:28;;;;;;;6.97;5.70;;;;;;;23.26;100.00;100741.53;2064438;28;20573;-67
2022/08/16 03:34:32;;;;;;;6.33;5.70;;;;;;;23.20;100.00;100731.53;2064382;28;20178;-67
2022/08/16 03:35:35;;;;;;;9.03;6.33;;;;;;;23.20;100.00;100737.19;2063441;28;20661;-67
2022/08/16 03:36:35;;;;;;;7.53;6.37;;;;;;;23.23;100.00;100741.81;2055132;28;20557;-67
2022/08/16 03:37:36;;;;;;;6.03;5.03;;;;;;;23.06;100.00;100709.91;2056003;28;20249;-67
2022/08/16 03:38:37;;;;;;;7.37;6.30;;;;;;;23.22;100.00;100732.56;2065605;28;20163;-67
2022/08/16 03:39:38;;;;;;;5.47;4.40;;;;;;;23.25;100.00;100730.75;2072267;28;20224;-67
2022/08/16 03:40:39;;;;;;;7.57;6.03;;;;;;;23.30;100.00;100725.09;2071386;28;20177;-67
2022/08/16 03:41:40;;;;;;;7.10;6.10;;;;;;;23.16;100.00;100708.38;2065321;28;20553;-67
2022/08/16 03:42:40;;;;;;;8.80;6.37;;;;;;;23.24;100.00;100735.63;2070706;28;20455;-67
2022/08/16 03:43:42;;;;;;;9.73;6.40;;;;;;;;;;2067200;28;20330;-67
2022/08/16 03:44:42;;;;;;;6.40;5.70;;;;;;;23.21;100.00;100742.31;2064456;28;20712;-67
2022/08/16 03:45:43;;;;;;;7.53;5.37;;;;;;;22.73;100.00;100664.75;2066336;28;20828;-67
2022/08/16 03:46:44;;;;;;;8.63;5.80;;;;;;;23.24;100.00;100752.59;2069951;28;20722;-67
2022/08/16 03:47:47;;;;;;;6.33;5.73;;;;;;;23.27;100.00;100753.59;2065194;28;20175;-67
2022/08/16 03:48:48;;;;;;;8.30;6.70;;;;;;;23.22;100.00;100765.69;2072361;28;20181;-67
2022/08/16 03:49:49;;;;;;;6.60;6.00;;;;;;;23.14;100.00;100754.09;2064585;28;20441;-67
2022/08/16 03:50:50;;;;;;;8.37;5.90;;;;;;;23.13;100.00;100761.06;2072067;28;20678;-67
2022/08/16 03:51:51;;;;;;;7.70;6.07;;;;;;;23.04;100.00;100747.22;2066181;28;20449;-67
2022/08/16 03:52:51;;;;;;;7.23;6.50;;;;;;;23.25;100.00;100761.84;2077751;28;20689;-67
2022/08/16 03:53:52;;;;;;;9.00;6.40;;;;;;;23.12;100.00;100741.78;2072370;28;20191;-68
2022/08/16 03:54:53;;;;;;;8.53;6.60;;;;;;;23.29;100.00;100768.03;2068178;28;20260;-67
2022/08/16 03:55:54;;;;;;;6.60;5.90;;;;;;;23.28;100.00;100760.81;2069882;28;20498;-67
2022/08/16 03:56:54;;;;;;;10.43;6.33;;;;;;;23.26;100.00;100754.91;2064718;28;20585;-67
2022/08/16 03:57:55;;;;;;;12.17;7.00;;;;;;;23.22;100.00;100751.56;2072743;28;20260;-67
2022/08/16 03:58:56;;;;;;;9.10;6.47;;;;;;;23.31;100.00;100765.44;2063589;28;20747;-67
2022/08/16 03:59:56;;;;;;;7.00;6.30;;;;;;;23.34;100.00;100761.59;2063897;28;20197;-67
2022/08/16 04:00:57;;;;;;;7.57;6.33;;;;;;;23.09;100.00;100729.44;2072315;28;20678;-67
2022/08/16 04:01:59;;;;;;;8.97;6.03;;;;;;;23.35;100.00;100768.78;2072478;28;20220;-67
2022/08/16 04:03:05;;;;;;;7.13;6.40;;;;;;;23.17;100.00;100732.53;2063452;28;20190;-67
2022/08/16 04:04:06;;;;;;;8.83;6.60;;;;;;;23.34;100.00;100762.34;2064551;28;20199;-67
2022/08/16 04:05:07;;;;;;;6.80;5.70;;;;;;;23.00;100.00;100706.34;2071786;28;20181;-67
2022/08/16 04:06:08;;;;;;;9.57;6.37;;;;;;;23.35;100.00;100769.56;2071947;28;20561;-67
2022/08/16 04:07:08;;;;;;;9.27;6.53;;;;;;;22.95;100.00;100702.25;2071896;28;20198;-67
2022/08/16 04:08:09;;;;;;;6.67;4.30;;;;;;;23.00;100.00;100683.72;2072696;28;20182;-67
2022/08/16 04:09:11;;;;;;;6.53;5.10;;;;;;;23.46;100.00;100748.94;2057142;28;20191;-67
2022/08/16 04:10:13;;;;;;;10.07;5.97;;;;;;;23.43;100.00;100738.69;2063757;28;20189;-67
2022/08/16 04:11:14;;;;;;;4.43;3.53;;;;;;;22.98;100.00;100655.97;2068408;28;20452;-67
2022/08/16 04:12:15;;;;;;;4.57;4.17;;;;;;;23.59;100.00;100732.22;2057104;28;20520;-67
2022/08/16 04:13:15;;;;;;;8.07;4.50;;;;;;;23.61;100.00;100738.09;2057156;28;20545;-67
2022/08/16 04:14:16;;;;;;;10.77;5.50;;;;;;;23.03;100.00;100638.25;2068049;28;20690;-67
2022/08/16 04:15:16;;;;;;;6.10;4.13;;;;;;;23.71;100.00;100740.13;2063275;28;20182;-67
2022/08/16 04:16:17;;;;;;;8.33;4.90;;;;;;;23.68;100.00;100727.03;2060274;28;20186;-67
2022/08/16 04:17:17;;;;;;;7.70;5.83;;;;;;;23.77;100.00;100743.72;2073577;28;20614;-67
2022/08/16 04:18:19;;;;;;;9.23;6.20;;;;;;;23.77;100.00;100746.53;2066889;28;20194;-67
2022/08/16 04:19:19;;;;;;;6.77;5.47;;;;;;;23.74;100.00;100746.81;2071896;28;20189;-67
2022/08/16 04:20:20;;;;;;;6.23;5.23;;;;;;;23.81;100.00;100757.59;2068845;28;20473;-67
2022/08/16 04:21:21;;;;;;;6.73;4.93;;;;;;;23.69;100.00;100744.78;2057147;28;20198;-67
2022/08/16 04:22:21;;;;;;;5.70;4.30;;;;;;;23.72;100.00;100740.88;2059799;28;20202;-67
2022/08/16 04:23:22;;;;;;;6.07;3.93;;;;;;;23.41;100.00;100687.50;2071854;28;20204;-67
2022/08/16 04:24:22;;;;;;;4.87;4.10;;;;;;;23.80;100.00;100731.34;2064192;28;20240;-67
2022/08/16 04:25:24;;;;;;;7.13;5.40;;;;;;;23.46;100.00;100661.28;2074848;28;20267;-67
2022/08/16 04:26:25;;;;;;;7.57;4.67;;;;;;;23.98;100.00;100727.94;2060985;28;20208;-68
2022/08/16 04:27:26;;;;;;;7.03;4.90;;;;;;;23.89;100.00;100721.84;2062748;28;20216;-68
2022/08/16 04:28:27;;;;;;;7.63;5.20;;;;;;;23.61;100.00;100661.72;2074902;28;20588;-68
2022/08/16 04:29:27;;;;;;;11.03;4.77;;;;;;;24.07;100.00;100729.69;2067126;28;20217;-67
2022/08/16 04:30:28;;;;;;;5.03;4.30;;;;;;;24.10;100.00;100737.16;2066677;28;20284;-68
2022/08/16 04:31:28;;;;;;;4.70;3.70;;;;;;;24.08;100.00;100731.25;2080713;28;20613;-68
2022/08/16 04:32:30;;;;;;;4.30;3.70;;;;;;;23.82;100.00;100689.16;2074245;28;20182;-68
2022/08/16 04:33:30;;;;;;;6.10;3.53;;;;;;;24.10;100.00;100726.59;2074808;28;20181;-68
2022/08/16 04:34:33;;;;;;;6.37;3.77;;;;;;;24.13;100.00;100717.06;2072418;28;20186;-68
2022/08/16 04:35:34;;;;;;;5.13;3.77;;;;;;;24.15;100.00;100716.53;2073294;28;20264;-67
2022/08/16 04:36:35;;;;;;;5.23;4.00;;;;;;;24.24;100.00;100721.88;2072481;28;20193;-68
2022/08/16 04:37:36;;;;;;;5.53;3.60;;;;;;;23.79;100.00;100642.09;2071338;28;20903;-67
2022/08/16 04:38:36;;;;;;;5.13;4.23;;;;;;;24.30;100.00;100719.81;2077211;28;20185;-68
2022/08/16 04:39:37;;;;;;;7.47;4.10;;;;;;;24.35;100.00;100718.97;2077648;28;20194;-68
2022/08/16 04:40:37;;;;;;;6.17;3.90;;;;;;;24.37;100.00;100713.56;2071307;28;20821;-68
2022/08/16 04:41:38;;;;;;;6.40;4.20;;;;;;;24.21;100.00;100688.97;2071012;28;20621;-68
2022/08/16 04:42:41;;;;;;;7.13;4.07;;;;;;;24.40;100.00;100715.31;2071941;28;20240;-68
2022/08/16 04:43:43;;;;;;;3.80;3.40;;;;;;;24.40;100.00;100718.94;2071545;28;20178;-68
2022/08/16 04:44:45;;;;;;;7.30;3.47;;;;;;;24.45;100.00;100723.81;2073149;28;20267;-67